Quinsam — VY6800 — position and weather

sailwx.info

Track history (hours):
 
Tides and Currents Weather Stations Pressure Air Temp Water Temp Dewpoint Dewpoint Depression Visibility Wind Speed Wind Dir Waves Ship Positions

Quinsam

Last reported at 2014-Aug-20 08:19 UTC. Time now 2014-Aug-20 08:53 UTC.
Position N 49°11' W 123°52'.

Length 88 m; draft 1.5 m.

Type: Ship. MMSI: 316001266.

Date/timePositionNaut miles runAvg speedWind from/ knotsBaromVisibWave heightAir tempDewpointWater temp
2014-Aug-20 08:19N 49°11' W 123°52'0 0.0
2014-Aug-20 06:32N 49°11' W 123°52'0 0.0
2014-Aug-20 05:30N 49°11' W 123°52'0 0.0
2014-Aug-20 04:28N 49°11' W 123°52'1 1.4
2014-Aug-20 03:33N 49°10' W 123°53'0 0.3
2014-Aug-20 02:33N 49°10' W 123°53'0 0.4
2014-Aug-20 01:30N 49°11' W 123°52'0 0.1
2014-Aug-20 00:25N 49°11' W 123°53'0 0.0
2014-Aug-19 23:09N 49°11' W 123°53'2 3.8
2014-Aug-19 22:34N 49°10' W 123°56'0 0.0
2014-Aug-19 21:27N 49°10' W 123°56'2 2.1
2014-Aug-19 20:33N 49°11' W 123°53'1 0.7
2014-Aug-19 19:19N 49°11' W 123°52'1 1.4
2014-Aug-19 18:33N 49°10' W 123°53'2 1.6
2014-Aug-19 17:30N 49°10' W 123°56'0 0.2
2014-Aug-19 16:32N 49°10' W 123°56'3 2.5
2014-Aug-19 15:31N 49°11' W 123°52'0 0.2
2014-Aug-19 14:33N 49°11' W 123°52'0 0.4
2014-Aug-19 13:33N 49°11' W 123°52'0 0.0
2014-Aug-19 12:33N 49°11' W 123°52'0 0.4
2014-Aug-19 11:23N 49°11' W 123°52'0 0.0
2014-Aug-19 10:29N 49°11' W 123°52'0 0.0
2014-Aug-19 09:32N 49°11' W 123°52'0 0.0
2014-Aug-19 08:26N 49°11' W 123°52'0 0.0
2014-Aug-19 07:26N 49°11' W 123°52'0 0.0
2014-Aug-19 06:32N 49°11' W 123°52'0 0.0
2014-Aug-19 05:33N 49°11' W 123°52'0 0.0
2014-Aug-19 04:29N 49°11' W 123°52'1 1.4
2014-Aug-19 03:33N 49°10' W 123°53'0 0.3
2014-Aug-19 02:34N 49°11' W 123°53'1 0.8
2014-Aug-19 01:32N 49°11' W 123°52'0 0.4
2014-Aug-19 00:19N 49°11' W 123°52'1 0.8
2014-Aug-18 23:33N 49°10' W 123°53'2 1.8
2014-Aug-18 22:33N 49°10' W 123°56'0 0.0
2014-Aug-18 21:33N 49°10' W 123°56'2 2.1
2014-Aug-18 20:29N 49°11' W 123°53'1 0.7
2014-Aug-18 19:32N 49°11' W 123°52'3 2.5
2014-Aug-18 18:30N 49°10' W 123°55'0 0.4
2014-Aug-18 17:34N 49°10' W 123°56'2 1.6
2014-Aug-18 16:32N 49°10' W 123°53'1 1.3
2014-Aug-18 15:33N 49°11' W 123°52'0 0.0
2014-Aug-18 14:31N 49°11' W 123°52'0 0.2
2014-Aug-18 13:33N 49°11' W 123°52'0 0.2
2014-Aug-18 12:33N 49°11' W 123°52'0 0.4
2014-Aug-18 11:29N 49°11' W 123°52'0 0.0
2014-Aug-18 06:08N 49°11' W 123°52'3 4.5
2014-Aug-18 05:33N 49°10' W 123°55'3 2.6
2014-Aug-18 04:33N 49°11' W 123°52'2 2.0
2014-Aug-18 03:33N 49°10' W 123°54'0 0.5
2014-Aug-18 02:33N 49°10' W 123°54'0 0.0
2014-Aug-18 01:33N 49°10' W 123°54'1 1.3
2014-Aug-18 00:30N 49°11' W 123°52'0 0.0
2014-Aug-17 18:33N 49°11' W 123°52'3 2.8
2014-Aug-17 17:31N 49°10' W 123°56'2 1.8
2014-Aug-17 16:33N 49°10' W 123°53'1 0.8
2014-Aug-17 15:24N 49°11' W 123°52'0 0.1
2014-Aug-17 13:33N 49°11' W 123°52'0 0.4
2014-Aug-17 12:32N 49°11' W 123°52'0 0.0
2014-Aug-17 11:20N 49°11' W 123°52'0 0.0
2014-Aug-17 10:29N 49°11' W 123°52'0 0.0
2014-Aug-17 09:32N 49°11' W 123°52'0 0.0
2014-Aug-17 08:11N 49°11' W 123°52'0 0.0
2014-Aug-17 07:17N 49°11' W 123°52'0 0.0
2014-Aug-17 06:26N 49°11' W 123°52'0 0.0
2014-Aug-17 05:33N 49°11' W 123°52'1 0.7
2014-Aug-17 03:34N 49°10' W 123°54'0 0.4
2014-Aug-17 02:33N 49°11' W 123°53'1 0.8
2014-Aug-17 01:29N 49°11' W 123°52'0 0.1
2014-Aug-17 00:22N 49°11' W 123°52'0 0.0
2014-Aug-16 23:31N 49°11' W 123°52'3 2.9
2014-Aug-16 22:33N 49°10' W 123°56'3 2.3
2014-Aug-16 21:21N 49°11' W 123°52'3 3.4
2014-Aug-16 20:33N 49°10' W 123°56'0 0.0
2014-Aug-16 19:12N 49°10' W 123°56'2 3.0
2014-Aug-16 18:27N 49°11' W 123°53'2 1.9
2014-Aug-16 17:16N 49°10' W 123°56'2 2.4
2014-Aug-16 16:34N 49°10' W 123°53'1 0.8
2014-Aug-16 15:28N 49°11' W 123°52'0 0.1
2014-Aug-16 14:18N 49°11' W 123°52'0 0.2
2014-Aug-16 13:33N 49°11' W 123°52'0 0.1
2014-Aug-16 06:33N 49°11' W 123°52'0 0.1
2014-Aug-16 05:30N 49°11' W 123°52'0 0.1
2014-Aug-16 04:33N 49°11' W 123°52'3 2.6
2014-Aug-16 03:27N 49°10' W 123°56'0 0.2
2014-Aug-16 02:33N 49°10' W 123°56'1 1.0
2014-Aug-16 01:33N 49°10' W 123°54'2 1.6
2014-Aug-16 00:33N 49°11' W 123°52'0 0.2
2014-Aug-15 23:20N 49°11' W 123°52'3 3.2
2014-Aug-15 22:33N 49°10' W 123°55'1 1.3
2014-Aug-15 21:33N 49°10' W 123°53'1 0.4
2014-Aug-15 20:19N 49°11' W 123°53'1 1.5
2014-Aug-15 19:33N 49°10' W 123°54'1 1.1
2014-Aug-15 18:29N 49°10' W 123°56'0 0.0
2014-Aug-15 17:33N 49°10' W 123°56'2 2.0
2014-Aug-15 16:33N 49°11' W 123°53'1 1.0
2014-Aug-15 15:33N 49°11' W 123°52'0 0.0
2014-Aug-15 14:33N 49°11' W 123°52'0 0.4
2014-Aug-15 13:33N 49°11' W 123°52'0 0.1
2014-Aug-15 12:34N 49°11' W 123°52'0 0.1
2014-Aug-15 09:25N 49°11' W 123°52'0 0.0
2014-Aug-15 08:10N 49°11' W 123°52'0 0.0
2014-Aug-15 07:28N 49°11' W 123°52'0 0.3
2014-Aug-15 06:33N 49°11' W 123°52'0 0.4
2014-Aug-15 05:33N 49°11' W 123°52'2 1.1
2014-Aug-15 03:29N 49°10' W 123°56'0 0.0
2014-Aug-15 02:33N 49°10' W 123°56'0 0.4
2014-Aug-15 01:33N 49°10' W 123°55'2 1.9
2014-Aug-15 00:32N 49°11' W 123°52'0 0.3
2014-Aug-14 23:17N 49°11' W 123°52'2 3.2
2014-Aug-14 22:33N 49°10' W 123°55'0 0.1
2014-Aug-14 21:33N 49°10' W 123°55'2 1.9
2014-Aug-14 20:24N 49°11' W 123°52'0 0.1
2014-Aug-14 19:32N 49°11' W 123°52'3 2.7
2014-Aug-14 18:33N 49°10' W 123°56'0 0.0
2014-Aug-14 17:20N 49°10' W 123°56'2 2.0
2014-Aug-14 16:34N 49°10' W 123°54'1 1.2
2014-Aug-14 15:31N 49°11' W 123°52'0 0.1
2014-Aug-14 14:34N 49°11' W 123°52'0 0.2
2014-Aug-14 13:33N 49°11' W 123°52'0 0.3
2014-Aug-14 12:34N 49°11' W 123°52'1 0.5
2014-Aug-14 11:33N 49°11' W 123°52'0 0.0
2014-Aug-14 10:30N 49°11' W 123°52'0 0.0
2014-Aug-14 08:15N 49°11' W 123°52'0 0.0
2014-Aug-14 07:21N 49°11' W 123°52'0 0.0
2014-Aug-14 06:33N 49°11' W 123°52'3 2.6
2014-Aug-14 05:25N 49°10' W 123°56'3 2.3
2014-Aug-14 04:09N 49°11' W 123°52'3 4.6
2014-Aug-14 03:31N 49°10' W 123°56'0 0.0
2014-Aug-14 02:27N 49°10' W 123°56'1 0.9
2014-Aug-14 01:33N 49°10' W 123°55'1 1.5
2014-Aug-14 00:33N 49°11' W 123°53'1 0.6
2014-Aug-13 23:29N 49°11' W 123°52'3 3.0
2014-Aug-13 22:33N 49°10' W 123°56'3 2.8
2014-Aug-13 21:33N 49°11' W 123°52'2 1.7
2014-Aug-13 20:33N 49°10' W 123°54'1 1.2
2014-Aug-13 19:32N 49°10' W 123°56'0 0.0
2014-Aug-13 18:26N 49°10' W 123°56'0 0.2
2014-Aug-13 17:33N 49°10' W 123°56'2 2.3
2014-Aug-13 16:33N 49°11' W 123°52'0 0.4
2014-Aug-13 15:32N 49°11' W 123°52'0 0.0
2014-Aug-13 14:19N 49°11' W 123°52'1 0.7
2014-Aug-13 13:33N 49°11' W 123°52'0 0.0
2014-Aug-13 12:33N 49°11' W 123°52'1 0.1
2014-Aug-13 06:26N 49°11' W 123°52'0 0.0
2014-Aug-13 05:33N 49°11' W 123°52'3 1.4
2014-Aug-13 03:30N 49°10' W 123°56'0 0.2
2014-Aug-13 02:33N 49°10' W 123°56'1 1.0
2014-Aug-13 01:33N 49°10' W 123°54'1 1.3
2014-Aug-13 00:29N 49°11' W 123°52'0 0.4
2014-Aug-12 23:19N 49°11' W 123°52'3 3.8
2014-Aug-12 22:33N 49°10' W 123°56'3 2.8
2014-Aug-12 21:33N 49°11' W 123°52'0 0.1
2014-Aug-12 20:28N 49°11' W 123°52'1 0.7
2014-Aug-12 19:33N 49°11' W 123°53'2 2.0
2014-Aug-12 18:33N 49°10' W 123°56'0 0.2
2014-Aug-12 17:23N 49°10' W 123°56'2 2.7
2014-Aug-12 16:33N 49°11' W 123°53'1 0.7
2014-Aug-12 15:29N 49°11' W 123°52'0 0.0
2014-Aug-12 14:22N 49°11' W 123°52'0 0.3
2014-Aug-12 13:33N 49°11' W 123°52'0 0.3
2014-Aug-12 12:33N 49°11' W 123°52'1 0.5
2014-Aug-12 11:26N 49°11' W 123°52'0 0.0
2014-Aug-12 10:32N 49°11' W 123°52'0 0.0
2014-Aug-12 09:32N 49°11' W 123°52'0 0.0
2014-Aug-12 08:29N 49°11' W 123°52'0 0.0
2014-Aug-12 07:26N 49°11' W 123°52'0 0.0
2014-Aug-12 06:27N 49°11' W 123°52'0 0.0
2014-Aug-12 05:33N 49°11' W 123°52'0 0.0
2014-Aug-12 04:33N 49°11' W 123°52'2 2.5
2014-Aug-12 03:33N 49°10' W 123°55'0 0.1
2014-Aug-12 02:33N 49°10' W 123°55'1 0.8
2014-Aug-12 01:33N 49°10' W 123°54'1 1.0
2014-Aug-12 00:30N 49°11' W 123°52'0 0.2
2014-Aug-11 23:10N 49°11' W 123°53'2 3.3
2014-Aug-11 22:34N 49°10' W 123°56'2 2.1
2014-Aug-11 21:24N 49°11' W 123°52'0 0.5
2014-Aug-11 20:31N 49°11' W 123°52'3 2.9
2014-Aug-11 19:34N 49°10' W 123°56'0 0.2
2014-Aug-11 18:33N 49°10' W 123°56'0 0.0
2014-Aug-11 17:34N 49°10' W 123°56'2 1.8
2014-Aug-11 16:33N 49°11' W 123°53'1 0.5
2014-Aug-11 15:24N 49°11' W 123°52'0 0.3
2014-Aug-11 14:19N 49°11' W 123°52'0 0.0
2014-Aug-11 13:33N 49°11' W 123°52'0 0.4
2014-Aug-11 12:33N 49°11' W 123°52'1 0.3
2014-Aug-11 10:25N 49°11' W 123°52'0 0.0
2014-Aug-11 09:13N 49°11' W 123°52'0 0.0
2014-Aug-11 06:31N 49°11' W 123°52'3 2.8
2014-Aug-11 05:32N 49°10' W 123°56'3 2.8
2014-Aug-11 04:33N 49°11' W 123°52'2 2.0
2014-Aug-11 03:34N 49°10' W 123°55'0 0.4
2014-Aug-11 02:33N 49°10' W 123°54'1 0.9
2014-Aug-11 01:33N 49°11' W 123°53'1 0.7
2014-Aug-11 00:33N 49°11' W 123°52'0 0.0
2014-Aug-10 23:33N 49°11' W 123°52'3 2.9
2014-Aug-10 22:34N 49°10' W 123°56'3 2.7
2014-Aug-10 21:29N 49°11' W 123°52'3 2.9
2014-Aug-10 20:30N 49°10' W 123°56'1 1.4
2014-Aug-10 19:32N 49°10' W 123°54'2 1.6
2014-Aug-10 18:32N 49°11' W 123°52'3 2.6
2014-Aug-10 17:26N 49°10' W 123°56'2 2.8
2014-Aug-10 16:33N 49°11' W 123°52'1 0.5
2014-Aug-10 15:33N 49°11' W 123°52'3 2.8
2014-Aug-10 14:31N 49°10' W 123°56'2 2.5
2014-Aug-10 13:33N 49°11' W 123°52'0 0.1
2014-Aug-10 09:11N 49°11' W 123°52'  
Track history (hours):
 
Tides and Currents Weather Stations Pressure Air Temp Water Temp Dewpoint Dewpoint Depression Visibility Wind Speed Wind Dir Waves Ship Positions

Quinsam

Last reported at 2014-Aug-20 08:19 UTC. Time now 2014-Aug-20 08:53 UTC.
Position N 49°11' W 123°52'.

Length 88 m; draft 1.5 m.

Type: Ship. MMSI: 316001266.

Date/timePositionNaut miles runAvg speedWind from/ knotsBaromVisibWave heightAir tempDewpointWater temp
2014-Aug-20 08:19N 49°11' W 123°52'0 0.0
2014-Aug-20 06:32N 49°11' W 123°52'0 0.0
2014-Aug-20 05:30N 49°11' W 123°52'0 0.0
2014-Aug-20 04:28N 49°11' W 123°52'1 1.4
2014-Aug-20 03:33N 49°10' W 123°53'0 0.3
2014-Aug-20 02:33N 49°10' W 123°53'0 0.4
2014-Aug-20 01:30N 49°11' W 123°52'0 0.1
2014-Aug-20 00:25N 49°11' W 123°53'0 0.0
2014-Aug-19 23:09N 49°11' W 123°53'2 3.8
2014-Aug-19 22:34N 49°10' W 123°56'0 0.0
2014-Aug-19 21:27N 49°10' W 123°56'2 2.1
2014-Aug-19 20:33N 49°11' W 123°53'1 0.7
2014-Aug-19 19:19N 49°11' W 123°52'1 1.4
2014-Aug-19 18:33N 49°10' W 123°53'2 1.6
2014-Aug-19 17:30N 49°10' W 123°56'0 0.2
2014-Aug-19 16:32N 49°10' W 123°56'3 2.5
2014-Aug-19 15:31N 49°11' W 123°52'0 0.2
2014-Aug-19 14:33N 49°11' W 123°52'0 0.4
2014-Aug-19 13:33N 49°11' W 123°52'0 0.0
2014-Aug-19 12:33N 49°11' W 123°52'0 0.4
2014-Aug-19 11:23N 49°11' W 123°52'0 0.0
2014-Aug-19 10:29N 49°11' W 123°52'0 0.0
2014-Aug-19 09:32N 49°11' W 123°52'0 0.0
2014-Aug-19 08:26N 49°11' W 123°52'0 0.0
2014-Aug-19 07:26N 49°11' W 123°52'0 0.0
2014-Aug-19 06:32N 49°11' W 123°52'0 0.0
2014-Aug-19 05:33N 49°11' W 123°52'0 0.0
2014-Aug-19 04:29N 49°11' W 123°52'1 1.4
2014-Aug-19 03:33N 49°10' W 123°53'0 0.3
2014-Aug-19 02:34N 49°11' W 123°53'1 0.8
2014-Aug-19 01:32N 49°11' W 123°52'0 0.4
2014-Aug-19 00:19N 49°11' W 123°52'1 0.8
2014-Aug-18 23:33N 49°10' W 123°53'2 1.8
2014-Aug-18 22:33N 49°10' W 123°56'0 0.0
2014-Aug-18 21:33N 49°10' W 123°56'2 2.1
2014-Aug-18 20:29N 49°11' W 123°53'1 0.7
2014-Aug-18 19:32N 49°11' W 123°52'3 2.5
2014-Aug-18 18:30N 49°10' W 123°55'0 0.4
2014-Aug-18 17:34N 49°10' W 123°56'2 1.6
2014-Aug-18 16:32N 49°10' W 123°53'1 1.3
2014-Aug-18 15:33N 49°11' W 123°52'0 0.0
2014-Aug-18 14:31N 49°11' W 123°52'0 0.2
2014-Aug-18 13:33N 49°11' W 123°52'0 0.2
2014-Aug-18 12:33N 49°11' W 123°52'0 0.4
2014-Aug-18 11:29N 49°11' W 123°52'0 0.0
2014-Aug-18 06:08N 49°11' W 123°52'3 4.5
2014-Aug-18 05:33N 49°10' W 123°55'3 2.6
2014-Aug-18 04:33N 49°11' W 123°52'2 2.0
2014-Aug-18 03:33N 49°10' W 123°54'0 0.5
2014-Aug-18 02:33N 49°10' W 123°54'0 0.0
2014-Aug-18 01:33N 49°10' W 123°54'1 1.3
2014-Aug-18 00:30N 49°11' W 123°52'0 0.0
2014-Aug-17 18:33N 49°11' W 123°52'3 2.8
2014-Aug-17 17:31N 49°10' W 123°56'2 1.8
2014-Aug-17 16:33N 49°10' W 123°53'1 0.8
2014-Aug-17 15:24N 49°11' W 123°52'0 0.1
2014-Aug-17 13:33N 49°11' W 123°52'0 0.4
2014-Aug-17 12:32N 49°11' W 123°52'0 0.0
2014-Aug-17 11:20N 49°11' W 123°52'0 0.0
2014-Aug-17 10:29N 49°11' W 123°52'0 0.0
2014-Aug-17 09:32N 49°11' W 123°52'0 0.0
2014-Aug-17 08:11N 49°11' W 123°52'0 0.0
2014-Aug-17 07:17N 49°11' W 123°52'0 0.0
2014-Aug-17 06:26N 49°11' W 123°52'0 0.0
2014-Aug-17 05:33N 49°11' W 123°52'1 0.7
2014-Aug-17 03:34N 49°10' W 123°54'0 0.4
2014-Aug-17 02:33N 49°11' W 123°53'1 0.8
2014-Aug-17 01:29N 49°11' W 123°52'0 0.1
2014-Aug-17 00:22N 49°11' W 123°52'0 0.0
2014-Aug-16 23:31N 49°11' W 123°52'3 2.9
2014-Aug-16 22:33N 49°10' W 123°56'3 2.3
2014-Aug-16 21:21N 49°11' W 123°52'3 3.4
2014-Aug-16 20:33N 49°10' W 123°56'0 0.0
2014-Aug-16 19:12N 49°10' W 123°56'2 3.0
2014-Aug-16 18:27N 49°11' W 123°53'2 1.9
2014-Aug-16 17:16N 49°10' W 123°56'2 2.4
2014-Aug-16 16:34N 49°10' W 123°53'1 0.8
2014-Aug-16 15:28N 49°11' W 123°52'0 0.1
2014-Aug-16 14:18N 49°11' W 123°52'0 0.2
2014-Aug-16 13:33N 49°11' W 123°52'0 0.1
2014-Aug-16 06:33N 49°11' W 123°52'0 0.1
2014-Aug-16 05:30N 49°11' W 123°52'0 0.1
2014-Aug-16 04:33N 49°11' W 123°52'3 2.6
2014-Aug-16 03:27N 49°10' W 123°56'0 0.2
2014-Aug-16 02:33N 49°10' W 123°56'1 1.0
2014-Aug-16 01:33N 49°10' W 123°54'2 1.6
2014-Aug-16 00:33N 49°11' W 123°52'0 0.2
2014-Aug-15 23:20N 49°11' W 123°52'3 3.2
2014-Aug-15 22:33N 49°10' W 123°55'1 1.3
2014-Aug-15 21:33N 49°10' W 123°53'1 0.4
2014-Aug-15 20:19N 49°11' W 123°53'1 1.5
2014-Aug-15 19:33N 49°10' W 123°54'1 1.1
2014-Aug-15 18:29N 49°10' W 123°56'0 0.0
2014-Aug-15 17:33N 49°10' W 123°56'2 2.0
2014-Aug-15 16:33N 49°11' W 123°53'1 1.0
2014-Aug-15 15:33N 49°11' W 123°52'0 0.0
2014-Aug-15 14:33N 49°11' W 123°52'0 0.4
2014-Aug-15 13:33N 49°11' W 123°52'0 0.1
2014-Aug-15 12:34N 49°11' W 123°52'0 0.1
2014-Aug-15 09:25N 49°11' W 123°52'0 0.0
2014-Aug-15 08:10N 49°11' W 123°52'0 0.0
2014-Aug-15 07:28N 49°11' W 123°52'0 0.3
2014-Aug-15 06:33N 49°11' W 123°52'0 0.4
2014-Aug-15 05:33N 49°11' W 123°52'2 1.1
2014-Aug-15 03:29N 49°10' W 123°56'0 0.0
2014-Aug-15 02:33N 49°10' W 123°56'0 0.4
2014-Aug-15 01:33N 49°10' W 123°55'2 1.9
2014-Aug-15 00:32N 49°11' W 123°52'0 0.3
2014-Aug-14 23:17N 49°11' W 123°52'2 3.2
2014-Aug-14 22:33N 49°10' W 123°55'0 0.1
2014-Aug-14 21:33N 49°10' W 123°55'2 1.9
2014-Aug-14 20:24N 49°11' W 123°52'0 0.1
2014-Aug-14 19:32N 49°11' W 123°52'3 2.7
2014-Aug-14 18:33N 49°10' W 123°56'0 0.0
2014-Aug-14 17:20N 49°10' W 123°56'2 2.0
2014-Aug-14 16:34N 49°10' W 123°54'1 1.2
2014-Aug-14 15:31N 49°11' W 123°52'0 0.1
2014-Aug-14 14:34N 49°11' W 123°52'0 0.2
2014-Aug-14 13:33N 49°11' W 123°52'0 0.3
2014-Aug-14 12:34N 49°11' W 123°52'1 0.5
2014-Aug-14 11:33N 49°11' W 123°52'0 0.0
2014-Aug-14 10:30N 49°11' W 123°52'0 0.0
2014-Aug-14 08:15N 49°11' W 123°52'0 0.0
2014-Aug-14 07:21N 49°11' W 123°52'0 0.0
2014-Aug-14 06:33N 49°11' W 123°52'3 2.6
2014-Aug-14 05:25N 49°10' W 123°56'3 2.3
2014-Aug-14 04:09N 49°11' W 123°52'3 4.6
2014-Aug-14 03:31N 49°10' W 123°56'0 0.0
2014-Aug-14 02:27N 49°10' W 123°56'1 0.9
2014-Aug-14 01:33N 49°10' W 123°55'1 1.5
2014-Aug-14 00:33N 49°11' W 123°53'1 0.6
2014-Aug-13 23:29N 49°11' W 123°52'3 3.0
2014-Aug-13 22:33N 49°10' W 123°56'3 2.8
2014-Aug-13 21:33N 49°11' W 123°52'2 1.7
2014-Aug-13 20:33N 49°10' W 123°54'1 1.2
2014-Aug-13 19:32N 49°10' W 123°56'0 0.0
2014-Aug-13 18:26N 49°10' W 123°56'0 0.2
2014-Aug-13 17:33N 49°10' W 123°56'2 2.3
2014-Aug-13 16:33N 49°11' W 123°52'0 0.4
2014-Aug-13 15:32N 49°11' W 123°52'0 0.0
2014-Aug-13 14:19N 49°11' W 123°52'1 0.7
2014-Aug-13 13:33N 49°11' W 123°52'0 0.0
2014-Aug-13 12:33N 49°11' W 123°52'1 0.1
2014-Aug-13 06:26N 49°11' W 123°52'0 0.0
2014-Aug-13 05:33N 49°11' W 123°52'3 1.4
2014-Aug-13 03:30N 49°10' W 123°56'0 0.2
2014-Aug-13 02:33N 49°10' W 123°56'1 1.0
2014-Aug-13 01:33N 49°10' W 123°54'1 1.3
2014-Aug-13 00:29N 49°11' W 123°52'0 0.4
2014-Aug-12 23:19N 49°11' W 123°52'3 3.8
2014-Aug-12 22:33N 49°10' W 123°56'3 2.8
2014-Aug-12 21:33N 49°11' W 123°52'0 0.1
2014-Aug-12 20:28N 49°11' W 123°52'1 0.7
2014-Aug-12 19:33N 49°11' W 123°53'2 2.0
2014-Aug-12 18:33N 49°10' W 123°56'0 0.2
2014-Aug-12 17:23N 49°10' W 123°56'2 2.7
2014-Aug-12 16:33N 49°11' W 123°53'1 0.7
2014-Aug-12 15:29N 49°11' W 123°52'0 0.0
2014-Aug-12 14:22N 49°11' W 123°52'0 0.3
2014-Aug-12 13:33N 49°11' W 123°52'0 0.3
2014-Aug-12 12:33N 49°11' W 123°52'1 0.5
2014-Aug-12 11:26N 49°11' W 123°52'0 0.0
2014-Aug-12 10:32N 49°11' W 123°52'0 0.0
2014-Aug-12 09:32N 49°11' W 123°52'0 0.0
2014-Aug-12 08:29N 49°11' W 123°52'0 0.0
2014-Aug-12 07:26N 49°11' W 123°52'0 0.0
2014-Aug-12 06:27N 49°11' W 123°52'0 0.0
2014-Aug-12 05:33N 49°11' W 123°52'0 0.0
2014-Aug-12 04:33N 49°11' W 123°52'2 2.5
2014-Aug-12 03:33N 49°10' W 123°55'0 0.1
2014-Aug-12 02:33N 49°10' W 123°55'1 0.8
2014-Aug-12 01:33N 49°10' W 123°54'1 1.0
2014-Aug-12 00:30N 49°11' W 123°52'0 0.2
2014-Aug-11 23:10N 49°11' W 123°53'2 3.3
2014-Aug-11 22:34N 49°10' W 123°56'2 2.1
2014-Aug-11 21:24N 49°11' W 123°52'0 0.5
2014-Aug-11 20:31N 49°11' W 123°52'3 2.9
2014-Aug-11 19:34N 49°10' W 123°56'0 0.2
2014-Aug-11 18:33N 49°10' W 123°56'0 0.0
2014-Aug-11 17:34N 49°10' W 123°56'2 1.8
2014-Aug-11 16:33N 49°11' W 123°53'1 0.5
2014-Aug-11 15:24N 49°11' W 123°52'0 0.3
2014-Aug-11 14:19N 49°11' W 123°52'0 0.0
2014-Aug-11 13:33N 49°11' W 123°52'0 0.4
2014-Aug-11 12:33N 49°11' W 123°52'1 0.3
2014-Aug-11 10:25N 49°11' W 123°52'0 0.0
2014-Aug-11 09:13N 49°11' W 123°52'0 0.0
2014-Aug-11 06:31N 49°11' W 123°52'3 2.8
2014-Aug-11 05:32N 49°10' W 123°56'3 2.8
2014-Aug-11 04:33N 49°11' W 123°52'2 2.0
2014-Aug-11 03:34N 49°10' W 123°55'0 0.4
2014-Aug-11 02:33N 49°10' W 123°54'1 0.9
2014-Aug-11 01:33N 49°11' W 123°53'1 0.7
2014-Aug-11 00:33N 49°11' W 123°52'0 0.0
2014-Aug-10 23:33N 49°11' W 123°52'3 2.9
2014-Aug-10 22:34N 49°10' W 123°56'3 2.7
2014-Aug-10 21:29N 49°11' W 123°52'3 2.9
2014-Aug-10 20:30N 49°10' W 123°56'1 1.4
2014-Aug-10 19:32N 49°10' W 123°54'2 1.6
2014-Aug-10 18:32N 49°11' W 123°52'3 2.6
2014-Aug-10 17:26N 49°10' W 123°56'2 2.8
2014-Aug-10 16:33N 49°11' W 123°52'1 0.5
2014-Aug-10 15:33N 49°11' W 123°52'3 2.8
2014-Aug-10 14:31N 49°10' W 123°56'2 2.5
2014-Aug-10 13:33N 49°11' W 123°52'0 0.1
2014-Aug-10 09:11N 49°11' W 123°52'  

Dump ship's entire track history